Time;durP1;ratioP1;P1;durP2;ratioP2;P2;SDS_P1;SDS_P2;PMS_P1;PMS_P2;Temp;Humidity;BMP_temperature;BMP_pressure;BME280_temperature;BME280_humidity;BME280_pressure;Samples;Min_cycle;Max_cycle;Signal;HPM_P1;HPM_P2
2022/11/21 00:01:58;;;;;;;1.40;1.10;;;;;;;2.77;100.00;95484.81;5067950;28;20047;-82
2022/11/21 00:04:25;;;;;;;2.15;0.80;;;;;;;2.77;100.00;95468.69;5069567;28;20655;-80
2022/11/21 00:06:51;;;;;;;2.20;0.90;;;;;;;2.79;100.00;95471.88;5071597;28;20048;-81
2022/11/21 00:09:18;;;;;;;1.10;0.80;;;;;;;2.80;100.00;95474.28;5070945;28;20045;-77
2022/11/21 00:11:45;;;;;;;1.20;0.90;;;;;;;2.81;100.00;95475.88;5056663;28;20051;-79
2022/11/21 00:14:11;;;;;;;1.35;0.93;;;;;;;2.83;100.00;95486.34;5066437;28;20044;-82
2022/11/21 00:16:39;;;;;;;2.00;1.00;;;;;;;2.85;100.00;95482.25;5078216;28;20070;-77
2022/11/21 00:19:06;;;;;;;0.93;0.77;;;;;;;2.85;100.00;95484.97;5090850;28;20051;-77
2022/11/21 00:21:32;;;;;;;1.52;1.00;;;;;;;2.83;100.00;95489.84;5065744;28;20051;-78
2022/11/21 00:23:59;;;;;;;0.73;0.70;;;;;;;2.79;100.00;95498.75;5064116;28;20048;-78
2022/11/21 00:26:25;;;;;;;0.90;0.70;;;;;;;2.74;100.00;95480.00;5070596;28;20042;-84
2022/11/21 00:28:52;;;;;;;1.27;0.90;;;;;;;2.74;100.00;95480.81;5068192;28;20048;-81
2022/11/21 00:31:20;;;;;;;1.33;0.82;;;;;;;2.72;100.00;95483.00;5060788;28;20045;-77
2022/11/21 00:33:48;;;;;;;1.27;0.90;;;;;;;2.73;100.00;95479.22;5070683;28;20044;-80
2022/11/21 00:36:15;;;;;;;1.20;0.90;;;;;;;2.74;100.00;95474.63;5070435;28;20052;-77
2022/11/21 00:38:41;;;;;;;1.48;0.95;;;;;;;2.73;100.00;95473.03;5070882;28;20484;-80
2022/11/21 00:41:08;;;;;;;0.90;0.70;;;;;;;2.78;100.00;95470.28;5061208;28;20510;-77
2022/11/21 00:43:34;;;;;;;0.90;0.80;;;;;;;2.76;100.00;95475.13;5050914;28;20040;-78
2022/11/21 00:46:01;;;;;;;1.85;1.08;;;;;;;2.79;100.00;95471.88;5055574;28;20550;-77
2022/11/21 00:48:28;;;;;;;1.00;0.90;;;;;;;2.83;100.00;95454.09;5089137;28;20040;-81
2022/11/21 00:50:56;;;;;;;2.92;0.85;;;;;;;2.83;100.00;95468.31;5057397;28;20395;-82
2022/11/21 00:53:23;;;;;;;1.40;0.90;;;;;;;2.87;100.00;95463.97;5070175;28;20051;-77
2022/11/21 00:55:49;;;;;;;1.15;0.90;;;;;;;2.89;100.00;95466.38;5070454;28;20055;-80
2022/11/21 00:58:16;;;;;;;1.08;0.80;;;;;;;2.98;100.00;95463.81;5069927;28;20047;-78
2022/11/21 01:00:42;;;;;;;1.55;0.88;;;;;;;3.01;100.00;95468.59;5065450;28;20037;-78
2022/11/21 01:03:09;;;;;;;1.52;0.85;;;;;;;3.01;100.00;95457.84;5050089;28;20048;-78
2022/11/21 01:05:36;;;;;;;1.90;0.90;;;;;;;3.03;100.00;95459.16;5050553;28;20048;-78
2022/11/21 01:08:04;;;;;;;0.70;0.70;;;;;;;3.08;100.00;95463.66;5051604;28;20535;-77
2022/11/21 01:10:30;;;;;;;0.82;0.57;;;;;;;3.08;100.00;95463.66;5067129;28;20039;-77
2022/11/21 01:12:57;;;;;;;1.17;0.88;;;;;;;3.13;100.00;95460.88;5066295;28;20051;-77
2022/11/21 01:15:23;;;;;;;0.95;0.70;;;;;;;3.14;99.91;95459.81;5056404;28;20045;-81
2022/11/21 01:17:50;;;;;;;1.00;0.70;;;;;;;3.21;99.31;95465.63;5050241;28;20071;-80
2022/11/21 01:20:17;;;;;;;0.98;0.75;;;;;;;3.20;98.96;95463.22;5049987;28;20049;-79
2022/11/21 01:22:43;;;;;;;1.52;0.80;;;;;;;3.25;98.83;95472.00;5070240;28;20582;-78
2022/11/21 01:25:12;;;;;;;0.80;0.70;;;;;;;3.26;98.88;95470.13;5069647;28;20131;-79
2022/11/21 01:27:38;;;;;;;0.85;0.73;;;;;;;3.28;98.03;95478.69;5070152;28;20071;-77
2022/11/21 01:30:06;;;;;;;0.93;0.70;;;;;;;3.31;98.19;95478.91;5069630;28;20495;-79
2022/11/21 01:32:32;;;;;;;0.95;0.75;;;;;;;3.33;97.19;95465.94;5050783;28;20045;-78
2022/11/21 01:34:59;;;;;;;0.80;0.60;;;;;;;3.35;97.46;95468.38;5050019;28;20041;-77
2022/11/21 01:37:25;;;;;;;0.85;0.77;;;;;;;3.37;97.30;95466.97;5064165;28;20040;-77
2022/11/21 01:39:52;;;;;;;1.08;0.80;;;;;;;3.40;95.90;95471.78;5070106;28;20033;-83
2022/11/21 01:42:21;;;;;;;0.75;0.70;;;;;;;3.44;96.37;95463.09;5054649;28;20468;-80
2022/11/21 01:44:50;;;;;;;1.60;0.77;;;;;;;3.44;96.66;95449.66;5050640;28;20496;-80
2022/11/21 01:47:17;;;;;;;1.35;0.85;;;;;;;3.43;97.15;95462.31;5049594;28;20053;-77
2022/11/21 01:49:45;;;;;;;1.23;0.90;;;;;;;3.40;97.21;95455.63;5049823;28;20063;-80
2022/11/21 01:52:15;;;;;;;0.95;0.85;;;;;;;3.41;97.87;95451.03;5053657;28;20040;-78
2022/11/21 01:54:45;;;;;;;1.10;0.80;;;;;;;3.39;97.26;95443.28;5050079;28;20037;-84
2022/11/21 01:57:15;;;;;;;1.50;0.90;;;;;;;3.37;98.01;95450.81;5067881;28;20070;-82
2022/11/21 01:59:47;;;;;;;0.90;0.77;;;;;;;3.42;97.61;95449.16;5069903;28;20586;-78
2022/11/21 02:02:17;;;;;;;1.30;0.90;;;;;;;3.39;97.94;95439.75;5053609;28;20045;-77
2022/11/21 02:04:44;;;;;;;1.23;0.90;;;;;;;3.30;98.03;95439.66;5059080;28;20495;-80
2022/11/21 02:07:13;;;;;;;2.30;0.90;;;;;;;3.28;97.50;95436.44;5069144;28;20055;-78
2022/11/21 02:09:44;;;;;;;1.45;0.90;;;;;;;3.28;97.49;95430.25;5069888;28;20036;-78
2022/11/21 02:12:16;;;;;;;1.88;0.80;;;;;;;3.32;98.22;95432.06;5054156;28;20223;-80
2022/11/21 02:14:44;;;;;;;1.10;0.90;;;;;;;3.25;98.03;95430.88;5050452;28;20043;-79
2022/11/21 02:17:11;;;;;;;2.42;1.00;;;;;;;3.28;98.25;95433.75;5049304;28;20047;-78
2022/11/21 02:19:44;;;;;;;0.90;0.70;;;;;;;3.28;98.43;95433.75;5049878;28;20041;-79
2022/11/21 02:22:18;;;;;;;4.40;1.08;;;;;;;3.17;99.01;95437.69;5050995;28;20395;-77
2022/11/21 02:24:49;;;;;;;1.33;0.90;;;;;;;3.08;99.16;95437.56;5049779;28;20047;-80
2022/11/21 02:27:18;;;;;;;2.55;0.90;;;;;;;3.17;98.99;95424.25;5049086;28;20061;-78
2022/11/21 02:29:44;;;;;;;4.00;1.00;;;;;;;3.23;98.47;95412.31;5050307;28;20507;-79
2022/11/21 02:32:21;;;;;;;2.17;1.00;;;;;;;3.33;98.09;95412.13;5052832;28;20069;-81
2022/11/21 02:34:48;;;;;;;1.85;0.95;;;;;;;3.32;98.47;95410.53;5049308;28;20052;-80
2022/11/21 02:37:15;;;;;;;1.58;1.00;;;;;;;3.31;98.27;95406.25;5048945;28;20534;-77
2022/11/21 02:39:42;;;;;;;3.88;1.50;;;;;;;3.33;98.03;95401.38;5058428;28;20055;-79
2022/11/21 02:42:14;;;;;;;1.35;0.93;;;;;;;3.38;98.41;95403.97;5052861;28;20518;-80
2022/11/21 02:44:49;;;;;;;1.38;0.80;;;;;;;3.46;98.24;95399.03;5050332;28;20041;-76
2022/11/21 02:47:16;;;;;;;3.38;1.23;;;;;;;3.45;97.93;95405.50;5068388;28;20060;-79
2022/11/21 02:49:50;;;;;;;1.98;0.88;;;;;;;3.54;97.58;95395.63;5069198;28;20040;-79
2022/11/21 02:52:17;;;;;;;1.77;0.80;;;;;;;3.63;97.00;95407.34;5070292;28;20055;-77
2022/11/21 02:54:43;;;;;;;2.10;0.95;;;;;;;3.65;96.83;95403.25;5072829;28;20041;-79
2022/11/21 02:57:10;;;;;;;2.90;1.00;;;;;;;3.56;95.99;95394.25;5072436;28;20040;-77
2022/11/21 02:59:36;;;;;;;1.95;1.00;;;;;;;3.63;96.27;95405.44;5054826;28;20067;-79
2022/11/21 03:02:04;;;;;;;2.80;0.93;;;;;;;3.59;95.62;95398.25;5066544;28;20059;-79
2022/11/21 03:04:31;;;;;;;1.00;0.90;;;;;;;3.55;95.39;95399.94;5072855;28;20044;-77
2022/11/21 03:06:57;;;;;;;1.30;1.02;;;;;;;3.53;95.76;95402.91;5071632;28;20064;-79
2022/11/21 03:09:24;;;;;;;1.98;0.90;;;;;;;3.50;95.83;95383.88;5072002;28;20394;-79
2022/11/21 03:11:50;;;;;;;2.03;0.95;;;;;;;3.44;96.20;95380.47;5060096;28;20045;-77
2022/11/21 03:14:17;;;;;;;2.63;0.90;;;;;;;3.39;96.49;95375.16;5058332;28;20070;-78
2022/11/21 03:16:43;;;;;;;1.55;0.98;;;;;;;3.40;95.44;95382.97;5092505;28;20039;-79
2022/11/21 03:19:11;;;;;;;2.13;1.40;;;;;;;3.44;95.33;95376.97;5092132;28;20042;-77
2022/11/21 03:21:38;;;;;;;1.70;1.00;;;;;;;3.45;94.99;95375.91;5071260;28;20124;-77
2022/11/21 03:24:05;;;;;;;1.92;1.00;;;;;;;3.38;95.19;95379.75;5051864;28;20045;-80
2022/11/21 03:26:32;;;;;;;3.10;1.20;;;;;;;3.38;95.74;95366.31;5063302;28;20047;-76
2022/11/21 03:28:59;;;;;;;1.98;1.00;;;;;;;3.37;95.25;95370.09;5072334;28;20055;-83
2022/11/21 03:31:25;;;;;;;2.17;0.98;;;;;;;3.36;94.97;95368.50;5062927;28;20037;-78
2022/11/21 03:33:52;;;;;;;2.58;1.02;;;;;;;3.33;95.20;95366.41;5052426;28;20048;-76
2022/11/21 03:36:19;;;;;;;2.75;1.20;;;;;;;3.34;94.95;95359.94;5051510;28;20072;-79
2022/11/21 03:38:46;;;;;;;4.15;1.08;;;;;;;3.28;95.21;95361.09;5062699;28;20041;-81
2022/11/21 03:43:53;;;;;;;3.05;1.02;;;;;;;3.27;94.63;95354.13;5052340;28;20451;-79
2022/11/21 03:46:20;;;;;;;2.08;0.80;;;;;;;3.29;94.60;95351.97;5051306;28;20053;-78
2022/11/21 03:48:46;;;;;;;1.63;0.80;;;;;;;3.22;94.55;95345.34;5051596;28;20040;-79
2022/11/21 03:51:13;;;;;;;6.10;1.20;;;;;;;3.18;94.68;95345.13;5052433;28;20045;-77
2022/11/21 03:53:41;;;;;;;3.88;1.05;;;;;;;3.16;94.58;95347.31;5051900;28;20522;-83
2022/11/21 03:56:07;;;;;;;1.45;0.85;;;;;;;3.17;94.52;95348.91;5051156;28;20045;-78
2022/11/21 03:58:34;;;;;;;3.28;1.02;;;;;;;3.17;94.63;95348.91;5051801;28;20051;-79
2022/11/21 04:01:00;;;;;;;5.40;1.00;;;;;;;3.13;94.59;95342.53;5055404;28;20404;-79
2022/11/21 04:03:27;;;;;;;2.55;1.00;;;;;;;3.12;94.68;95340.94;5070183;28;20117;-77
2022/11/21 04:05:53;;;;;;;2.70;0.85;;;;;;;3.08;94.61;95332.69;5071467;28;20048;-85
2022/11/21 04:08:20;;;;;;;2.53;0.73;;;;;;;3.15;94.58;95324.22;5070343;28;20044;-78
2022/11/21 04:10:49;;;;;;;1.20;0.80;;;;;;;3.13;94.61;95331.75;5069495;28;20048;-81
2022/11/21 04:13:15;;;;;;;1.63;0.90;;;;;;;3.09;94.54;95325.41;5050998;28;20237;-79
2022/11/21 04:15:42;;;;;;;1.50;0.80;;;;;;;3.08;94.52;95323.78;5052140;28;20049;-78
2022/11/21 04:18:09;;;;;;;1.38;0.80;;;;;;;3.09;94.63;95334.28;5050877;28;20055;-78
2022/11/21 04:20:36;;;;;;;2.58;0.90;;;;;;;3.14;94.46;95338.78;5068181;28;20044;-76
2022/11/21 04:23:04;;;;;;;3.33;1.25;;;;;;;3.21;93.95;95333.00;5050641;28;20053;-77
2022/11/21 04:25:30;;;;;;;3.38;0.70;;;;;;;3.26;93.47;95333.69;5051334;28;20083;-77
2022/11/21 04:27:59;;;;;;;2.15;0.88;;;;;;;3.29;93.54;95335.81;5051263;28;20047;-77
2022/11/21 04:30:26;;;;;;;2.45;0.80;;;;;;;3.31;93.14;95333.63;5050469;28;20585;-77
2022/11/21 04:32:53;;;;;;;3.42;0.82;;;;;;;3.35;93.22;95329.25;5069516;28;20136;-77
2022/11/21 04:35:20;;;;;;;6.07;1.02;;;;;;;3.35;93.27;95329.25;5070509;28;20045;-77
2022/11/21 04:37:47;;;;;;;1.77;0.80;;;;;;;3.44;93.10;95325.84;5070677;28;20051;-79
2022/11/21 04:40:15;;;;;;;2.70;1.05;;;;;;;3.42;92.73;95320.78;5060173;28;20048;-77
2022/11/21 04:42:42;;;;;;;4.15;0.95;;;;;;;3.56;93.17;95318.09;5067831;28;20051;-77
2022/11/21 04:45:10;;;;;;;1.42;0.90;;;;;;;3.47;92.94;95309.91;5059183;28;20041;-77
2022/11/21 04:47:38;;;;;;;5.00;0.80;;;;;;;3.49;92.76;95306.91;5061236;28;20037;-79
2022/11/21 04:50:06;;;;;;;4.47;1.05;;;;;;;3.52;92.38;95301.75;5070413;28;20049;-78
2022/11/21 04:52:33;;;;;;;3.75;0.95;;;;;;;3.55;92.27;95297.63;5069102;28;20045;-78
2022/11/21 04:55:00;;;;;;;1.58;0.80;;;;;;;3.63;92.17;95299.66;5070814;28;20036;-78
2022/11/21 04:57:27;;;;;;;3.70;0.90;;;;;;;3.68;92.21;95307.63;5055136;28;20041;-78
2022/11/21 04:59:54;;;;;;;3.70;1.02;;;;;;;3.69;92.29;95305.72;5050513;28;20040;-77
2022/11/21 05:02:23;;;;;;;2.55;1.00;;;;;;;3.66;92.38;95312.53;5063507;28;20044;-77
2022/11/21 05:04:50;;;;;;;1.35;0.70;;;;;;;3.61;92.83;95304.53;5070457;28;20044;-78
2022/11/21 05:07:18;;;;;;;1.90;1.20;;;;;;;3.61;93.23;95299.16;5069819;28;20048;-76
2022/11/21 05:09:45;;;;;;;2.75;0.88;;;;;;;3.66;92.99;95301.75;5069767;28;20044;-77
2022/11/21 05:14:56;;;;;;;4.35;1.00;;;;;;;3.61;94.18;95315.31;5051696;28;20412;-77
2022/11/21 05:17:24;;;;;;;3.40;0.70;;;;;;;3.58;94.55;95313.19;5049926;28;20041;-77
2022/11/21 05:19:51;;;;;;;3.88;0.98;;;;;;;3.48;95.48;95316.88;5050542;28;20050;-76
2022/11/21 05:22:17;;;;;;;4.28;1.05;;;;;;;3.26;97.71;95331.00;5062028;28;20059;-80
2022/11/21 05:24:44;;;;;;;2.75;0.70;;;;;;;3.09;98.96;95323.50;5070052;28;20124;-82
2022/11/21 05:27:10;;;;;;;3.78;0.98;;;;;;;2.95;100.00;95324.56;5069576;28;20402;-83
2022/11/21 05:29:37;;;;;;;2.13;0.57;;;;;;;2.90;100.00;95316.56;5059826;28;20045;-87
2022/11/21 05:32:04;;;;;;;2.35;0.70;;;;;;;2.73;100.00;95315.22;5050418;28;20076;-86
2022/11/21 05:34:32;;;;;;;1.30;0.70;;;;;;;2.66;100.00;95304.03;5049940;28;20519;-85
2022/11/21 05:36:58;;;;;;;2.22;0.90;;;;;;;2.64;100.00;95313.50;5049924;28;20053;-80
2022/11/21 05:39:25;;;;;;;0.90;0.65;;;;;;;2.57;100.00;95325.44;5049486;28;20045;-83
2022/11/21 05:41:52;;;;;;;2.20;0.68;;;;;;;2.52;100.00;95317.44;5057849;28;20062;-77
2022/11/21 05:44:18;;;;;;;2.65;0.77;;;;;;;2.47;100.00;95305.97;5071461;28;20044;-85
2022/11/21 05:46:45;;;;;;;2.08;0.70;;;;;;;2.49;100.00;95295.72;5090034;28;20513;-82
2022/11/21 05:49:12;;;;;;;1.77;0.95;;;;;;;2.46;100.00;95297.13;5087475;28;20066;-85
2022/11/21 05:51:40;;;;;;;4.05;0.90;;;;;;;2.54;100.00;95298.31;5055940;28;20045;-83
2022/11/21 05:54:06;;;;;;;4.07;1.00;;;;;;;2.48;100.00;95294.94;5069483;28;20049;-84
2022/11/21 05:56:33;;;;;;;2.10;0.80;;;;;;;2.47;100.00;95303.28;5069761;28;20041;-85
2022/11/21 05:58:59;;;;;;;2.25;0.90;;;;;;;2.45;100.00;95308.13;5069835;28;20047;-84
2022/11/21 06:04:11;;;;;;;6.28;1.40;;;;;;;2.47;100.00;95311.34;5069455;28;20063;-84
2022/11/21 06:06:37;;;;;;;5.45;1.10;;;;;;;2.54;100.00;95314.44;5069547;28;20054;-85
2022/11/21 06:09:05;;;;;;;45.83;22.30;;;;;;;2.59;100.00;95315.16;5065224;28;20059;-82
2022/11/21 06:11:32;;;;;;;5.28;1.70;;;;;;;2.56;100.00;95312.28;5054559;28;20045;-85
2022/11/21 06:13:58;;;;;;;5.00;1.08;;;;;;;2.52;100.00;95306.69;5069185;28;20060;-92
2022/11/21 06:16:25;;;;;;;5.45;1.20;;;;;;;2.55;100.00;95294.53;5058047;28;20048;-90
2022/11/21 06:18:52;;;;;;;5.30;1.40;;;;;;;2.59;100.00;95290.19;5051900;28;20045;-92
2022/11/21 06:21:21;;;;;;;3.55;1.60;;;;;;;2.62;100.00;95289.63;5052718;28;20132;-89
2022/11/21 06:23:50;;;;;;;5.63;1.50;;;;;;;2.69;100.00;95287.34;5069662;28;20048;-87
2022/11/21 06:26:20;;;;;;;2.97;1.20;;;;;;;2.64;100.00;95290.09;5058138;28;20047;-84
2022/11/21 06:28:48;;;;;;;3.50;1.17;;;;;;;2.68;100.00;95291.13;5070005;28;20040;-83
2022/11/21 06:31:16;;;;;;;5.32;1.42;;;;;;;2.67;100.00;95296.81;5064174;28;20045;-82
2022/11/21 06:33:43;;;;;;;1.70;1.00;;;;;;;2.68;100.00;95293.81;5053004;28;20136;-84
2022/11/21 06:36:12;;;;;;;2.63;1.00;;;;;;;2.70;100.00;95304.25;5052844;28;20064;-78
2022/11/21 06:38:39;;;;;;;3.13;1.10;;;;;;;2.72;100.00;95300.19;5053715;28;20049;-79
2022/11/21 06:41:06;;;;;;;2.72;0.88;;;;;;;2.76;100.00;95311.16;5055634;28;20045;-79
2022/11/21 06:43:34;;;;;;;1.95;1.08;;;;;;;2.80;100.00;95307.56;5072987;28;20112;-76
2022/11/21 06:46:02;;;;;;;2.95;1.15;;;;;;;2.80;100.00;95307.56;5069527;28;20037;-78
2022/11/21 06:48:28;;;;;;;3.65;1.10;;;;;;;2.91;100.00;95312.78;5071996;28;20102;-80
2022/11/21 06:50:55;;;;;;;2.67;1.20;;;;;;;2.94;100.00;95306.84;5072702;28;20041;-78
2022/11/21 06:53:21;;;;;;;2.38;1.08;;;;;;;2.92;100.00;95314.38;5072468;28;20052;-76
2022/11/21 06:55:48;;;;;;;2.50;0.85;;;;;;;3.00;100.00;95306.44;5073076;28;20044;-76
2022/11/21 06:58:14;;;;;;;2.55;1.10;;;;;;;3.06;100.00;95320.59;5072410;28;20048;-77
2022/11/21 07:00:43;;;;;;;1.60;1.13;;;;;;;3.06;100.00;95317.91;5073013;28;20051;-77
2022/11/21 07:03:09;;;;;;;2.47;1.30;;;;;;;3.01;100.00;95323.38;5072381;28;20427;-77
2022/11/21 07:05:36;;;;;;;3.55;1.40;;;;;;;2.98;100.00;95329.38;5073021;28;20048;-78
2022/11/21 07:08:03;;;;;;;4.40;1.23;;;;;;;3.00;100.00;95337.94;5072464;28;20066;-79
2022/11/21 07:10:30;;;;;;;6.05;1.20;;;;;;;3.03;100.00;95348.09;5072619;28;20048;-76
2022/11/21 07:15:43;;;;;;;2.53;1.13;;;;;;;3.09;100.00;95341.53;5087031;28;20170;-80
2022/11/21 07:18:09;;;;;;;4.43;1.42;;;;;;;3.20;100.00;95351.03;5092286;28;20036;-78
2022/11/21 07:20:36;;;;;;;2.92;1.10;;;;;;;3.23;100.00;95357.69;5092603;28;20044;-77
2022/11/21 07:23:03;;;;;;;2.05;1.00;;;;;;;3.25;100.00;95344.78;5092619;28;20554;-77
2022/11/21 07:25:29;;;;;;;3.78;1.10;;;;;;;3.17;100.00;95348.91;5092660;28;20050;-80
2022/11/21 07:27:58;;;;;;;3.20;1.20;;;;;;;3.18;100.00;95353.19;5092660;28;20078;-78
2022/11/21 07:30:25;;;;;;;1.42;1.23;;;;;;;3.23;100.00;95353.13;5092136;28;20604;-78
2022/11/21 07:32:56;;;;;;;3.45;1.33;;;;;;;3.22;100.00;95351.53;5092562;28;20491;-78
2022/11/21 07:35:23;;;;;;;3.25;1.52;;;;;;;3.22;100.00;95354.22;5092073;28;20044;-78
2022/11/21 07:37:50;;;;;;;2.58;1.50;;;;;;;3.34;100.00;95348.34;5092189;28;20042;-77
2022/11/21 07:40:16;;;;;;;2.55;1.40;;;;;;;3.30;100.00;95353.56;5092011;28;20054;-78
2022/11/21 07:42:43;;;;;;;1.52;1.13;;;;;;;3.43;100.00;95345.78;5092257;28;20686;-77
2022/11/21 07:45:11;;;;;;;3.90;1.30;;;;;;;3.44;100.00;95355.44;5069391;28;20037;-78
2022/11/21 07:47:37;;;;;;;2.75;1.20;;;;;;;3.57;100.00;95354.69;5051921;28;20044;-77
2022/11/21 07:50:07;;;;;;;2.53;1.10;;;;;;;3.82;100.00;95359.59;5051533;28;20044;-77
2022/11/21 07:52:34;;;;;;;3.63;1.30;;;;;;;3.75;100.00;95343.00;5052116;28;20049;-81
2022/11/21 07:55:01;;;;;;;2.10;1.00;;;;;;;4.14;100.00;95360.56;5051862;28;20040;-77
2022/11/21 07:57:28;;;;;;;1.83;1.10;;;;;;;4.52;98.56;95360.31;5051514;28;20040;-78
2022/11/21 07:59:55;;;;;;;2.83;0.75;;;;;;;4.97;94.88;95355.75;5052003;28;20051;-81
2022/11/21 08:02:23;;;;;;;0.98;0.70;;;;;;;4.84;94.44;95362.00;5051590;28;20090;-78
2022/11/21 08:04:50;;;;;;;2.17;0.90;;;;;;;4.72;94.70;95366.03;5051730;28;20033;-77
2022/11/21 08:07:20;;;;;;;1.05;0.73;;;;;;;4.29;95.94;95367.53;5051419;28;20044;-77
2022/11/21 08:09:46;;;;;;;2.33;0.80;;;;;;;4.22;97.50;95378.72;5051798;28;20037;-82
2022/11/21 08:12:14;;;;;;;3.65;0.80;;;;;;;4.12;97.76;95363.56;5051140;28;20037;-78
2022/11/21 08:14:41;;;;;;;2.15;0.70;;;;;;;4.05;98.21;95368.56;5052318;28;20045;-79
2022/11/21 08:17:08;;;;;;;1.02;0.70;;;;;;;4.14;98.17;95361.38;5051132;28;20041;-78
2022/11/21 08:19:34;;;;;;;2.05;0.80;;;;;;;4.11;96.43;95361.97;5051349;28;20043;-80
2022/11/21 08:22:01;;;;;;;2.72;0.80;;;;;;;4.12;98.10;95368.97;5051588;28;20045;-77
2022/11/21 08:24:29;;;;;;;2.65;0.75;;;;;;;4.09;96.68;95364.16;5051272;28;20041;-79
2022/11/21 08:26:55;;;;;;;3.13;1.20;;;;;;;4.04;96.26;95363.47;5051153;28;20049;-82
2022/11/21 08:29:22;;;;;;;1.48;0.85;;;;;;;4.10;95.93;95359.56;5050989;28;20045;-76
2022/11/21 08:31:48;;;;;;;2.08;0.60;;;;;;;4.04;95.37;95366.16;5051284;28;20515;-78
2022/11/21 08:34:15;;;;;;;2.22;0.60;;;;;;;4.03;96.20;95367.28;5050470;28;20419;-82
2022/11/21 08:36:41;;;;;;;0.75;0.60;;;;;;;4.11;95.54;95367.34;5051349;28;20049;-78
2022/11/21 08:39:08;;;;;;;1.65;0.60;;;;;;;4.15;95.07;95364.84;5050588;28;20446;-76
2022/11/21 08:44:20;;;;;;;1.25;0.47;;;;;;;4.48;93.77;95370.88;5057725;28;20468;-82
2022/11/21 08:46:46;;;;;;;2.22;0.60;;;;;;;4.56;92.57;95372.88;5091102;28;20036;-82
2022/11/21 08:49:13;;;;;;;2.40;0.60;;;;;;;4.60;91.99;95375.78;5089851;28;20558;-79
2022/11/21 08:51:39;;;;;;;0.40;0.40;;;;;;;4.44;90.71;95370.72;5091302;28;20414;-82
2022/11/21 08:54:07;;;;;;;3.13;0.73;;;;;;;4.36;91.36;95374.09;5090450;28;20220;-77
2022/11/21 08:56:33;;;;;;;2.40;0.50;;;;;;;4.25;90.59;95371.94;5091107;28;20048;-77
2022/11/21 08:59:01;;;;;;;2.67;0.88;;;;;;;4.31;91.61;95376.91;5090762;28;20062;-78
2022/11/21 09:01:27;;;;;;;0.60;0.40;;;;;;;4.41;92.91;95375.91;5090604;28;20043;-77
2022/11/21 09:03:54;;;;;;;1.75;0.38;;;;;;;4.35;90.38;95388.69;5090803;28;20143;-76
2022/11/21 09:06:20;;;;;;;3.53;0.50;;;;;;;4.34;90.35;95387.09;5090449;28;20048;-77
2022/11/21 09:08:47;;;;;;;1.40;0.57;;;;;;;4.34;90.31;95383.59;5090852;28;20733;-78
2022/11/21 09:11:13;;;;;;;0.70;0.60;;;;;;;4.36;91.19;95394.88;5090313;28;20043;-78
2022/11/21 09:13:40;;;;;;;1.30;0.45;;;;;;;4.42;91.30;95389.06;5090773;28;20040;-77
2022/11/21 09:18:55;;;;;;;0.85;0.70;;;;;;;4.47;91.75;95384.69;5090661;28;20046;-77
2022/11/21 09:21:21;;;;;;;1.00;0.50;;;;;;;4.37;90.59;95389.19;5090118;28;20047;-80
2022/11/21 09:23:48;;;;;;;1.23;0.60;;;;;;;4.32;90.09;95399.25;5090451;28;20043;-77
2022/11/21 09:26:15;;;;;;;1.27;0.60;;;;;;;4.45;89.31;95395.78;5089911;28;20202;-76
2022/11/21 09:28:41;;;;;;;2.70;0.80;;;;;;;4.67;88.85;95395.03;5090677;28;20411;-77
2022/11/21 09:31:09;;;;;;;2.08;0.70;;;;;;;4.76;85.97;95398.59;5089999;28;20047;-77
2022/11/21 09:33:36;;;;;;;1.73;0.70;;;;;;;4.74;85.88;95408.88;5090520;28;20044;-76
2022/11/21 09:36:03;;;;;;;2.67;0.60;;;;;;;4.77;86.83;95399.41;5090057;28;20059;-76
2022/11/21 09:38:30;;;;;;;1.90;0.75;;;;;;;4.94;88.57;95394.94;5090184;28;20512;-78
2022/11/21 09:44:04;;;;;;;3.47;0.82;;;;;;;5.07;84.85;95398.69;5087122;28;20064;-77
2022/11/21 09:46:39;;;;;;;1.88;0.70;;;;;;;5.22;83.56;95389.44;5090203;28;20115;-75
2022/11/21 09:49:12;;;;;;;1.60;0.80;;;;;;;5.52;84.34;95390.56;5089536;28;20673;-82
2022/11/21 09:51:41;;;;;;;2.40;0.70;;;;;;;5.49;81.16;95383.09;5090256;28;20044;-76
2022/11/21 09:54:16;;;;;;;1.67;0.75;;;;;;;5.76;81.77;95392.94;5089505;28;20036;-78
2022/11/21 09:56:43;;;;;;;1.40;0.60;;;;;;;5.89;80.19;95383.91;5090015;28;20128;-77
2022/11/21 09:59:27;;;;;;;1.10;0.50;;;;;;;6.03;80.32;95380.34;5089470;28;20036;-78
2022/11/21 10:01:54;;;;;;;2.03;0.70;;;;;;;6.12;80.12;95373.09;5091970;28;20040;-77
2022/11/21 10:04:21;;;;;;;0.95;0.52;;;;;;;6.67;78.54;95380.66;5093890;28;20048;-76
2022/11/21 10:06:54;;;;;;;2.10;0.73;;;;;;;6.28;77.96;95371.53;5094279;28;20044;-78
2022/11/21 10:09:32;;;;;;;1.30;0.60;;;;;;;6.50;77.87;95362.50;5093891;28;20433;-78
2022/11/21 10:14:59;;;;;;;1.95;0.50;;;;;;;6.47;75.95;95363.94;5092088;28;20048;-76
2022/11/21 10:17:38;;;;;;;3.83;0.60;;;;;;;6.00;78.69;95344.75;5093399;28;20048;-80
2022/11/21 10:20:26;;;;;;;3.25;0.75;;;;;;;5.97;80.40;95345.38;5093596;28;20044;-76
2022/11/21 10:23:18;;;;;;;1.77;0.52;;;;;;;6.58;79.34;95347.38;5094108;28;20040;-77
2022/11/21 10:25:50;;;;;;;6.25;0.90;;;;;;;6.60;77.37;95339.78;5093875;28;20028;-77
2022/11/21 10:28:26;;;;;;;4.65;0.75;;;;;;;6.99;73.99;95346.94;5093467;28;20139;-76
2022/11/21 10:30:55;;;;;;;3.92;0.70;;;;;;;7.50;72.87;95339.84;5094040;28;20048;-76
2022/11/21 10:33:30;;;;;;;1.55;0.68;;;;;;;7.54;72.14;95338.88;5093400;28;20051;-76
2022/11/21 10:36:01;;;;;;;4.95;0.90;;;;;;;7.71;69.51;95334.53;5093858;28;20039;-76
2022/11/21 10:38:29;;;;;;;2.60;0.80;;;;;;;8.08;69.67;95336.44;5093281;28;20044;-77
2022/11/21 10:41:03;;;;;;;5.32;0.70;;;;;;;8.14;69.82;95336.25;5093658;28;20043;-75
2022/11/21 10:46:21;;;;;;;4.72;1.30;;;;;;;7.40;69.56;95329.34;5053148;28;20120;-78
2022/11/21 10:48:56;;;;;;;3.90;0.77;;;;;;;7.47;71.22;95330.47;5052999;28;20132;-76
2022/11/21 10:51:37;;;;;;;4.68;1.35;;;;;;;7.79;70.51;95328.28;5053108;28;20064;-76
2022/11/21 10:56:52;;;;;;;2.15;0.68;;;;;;;7.35;70.65;95324.91;5053127;28;20175;-79
2022/11/21 10:59:24;;;;;;;2.13;0.73;;;;;;;7.62;71.88;95326.41;5052385;28;20079;-77
2022/11/21 11:01:57;;;;;;;5.50;1.08;;;;;;;7.25;69.57;95326.03;5053258;28;20132;-75
2022/11/21 11:04:26;;;;;;;2.65;0.70;;;;;;;7.05;69.23;95322.09;5052793;28;20045;-76
2022/11/21 11:06:53;;;;;;;2.10;0.73;;;;;;;6.37;70.33;95314.75;5053137;28;20094;-79
2022/11/21 11:09:25;;;;;;;2.25;0.80;;;;;;;6.14;72.37;95311.38;5052407;28;20131;-76
2022/11/21 11:11:51;;;;;;;2.65;0.80;;;;;;;6.01;73.53;95313.91;5052465;28;20056;-79
2022/11/21 11:14:30;;;;;;;3.03;0.98;;;;;;;6.03;72.14;95304.69;5052870;28;20415;-78
2022/11/21 11:16:56;;;;;;;4.60;0.93;;;;;;;6.11;73.67;95303.91;5052747;28;20047;-77
2022/11/21 11:19:27;;;;;;;5.97;1.20;;;;;;;6.34;73.39;95304.59;5052195;28;20051;-76
2022/11/21 11:21:55;;;;;;;2.50;0.80;;;;;;;6.19;72.03;95289.63;5052769;28;20065;-76
2022/11/21 11:24:24;;;;;;;2.47;0.70;;;;;;;6.13;73.57;95288.19;5052302;28;20056;-75
2022/11/21 11:26:56;;;;;;;3.95;0.80;;;;;;;6.18;73.74;95279.91;5052769;28;20083;-76
2022/11/21 11:29:25;;;;;;;2.58;0.85;;;;;;;6.14;74.39;95278.94;5052317;28;20037;-77
2022/11/21 11:31:55;;;;;;;3.92;0.65;;;;;;;6.01;73.74;95261.78;5052594;28;20411;-77
2022/11/21 11:34:23;;;;;;;4.95;0.90;;;;;;;5.92;74.55;95261.75;5051973;28;22737;-76
2022/11/21 11:37:08;;;;;;;4.45;0.88;;;;;;;6.06;72.16;95260.81;5052397;28;20044;-76
2022/11/21 11:39:40;;;;;;;1.95;0.95;;;;;;;6.12;70.36;95264.97;5052257;28;20131;-75
2022/11/21 11:48:01;;;;;;;3.27;0.90;;;;;;;5.99;71.10;95259.38;5052088;28;20178;-77
2022/11/21 11:50:33;;;;;;;2.70;0.95;;;;;;;6.19;70.74;95254.47;5052030;28;20289;-76
2022/11/21 11:53:07;;;;;;;4.00;1.30;;;;;;;6.48;70.87;95251.94;5052112;28;20045;-75
2022/11/21 11:55:46;;;;;;;4.05;0.90;;;;;;;6.34;71.59;95254.00;5052113;28;20464;-76
2022/11/21 11:58:21;;;;;;;4.15;0.85;;;;;;;6.34;72.07;95242.41;5051625;28;20091;-77
2022/11/21 12:00:55;;;;;;;2.42;0.82;;;;;;;6.54;71.67;95239.84;5052130;28;20051;-76
2022/11/21 12:03:26;;;;;;;1.42;0.70;;;;;;;6.83;70.24;95235.66;5051521;28;20059;-75
2022/11/21 12:06:00;;;;;;;4.45;1.10;;;;;;;6.78;68.44;95238.53;5051920;28;20067;-75
2022/11/21 12:08:38;;;;;;;2.50;0.80;;;;;;;6.84;68.10;95226.47;5051600;28;20506;-78
2022/11/21 12:14:05;;;;;;;2.17;0.73;;;;;;;6.94;66.25;95231.53;5052455;28;20056;-78
2022/11/21 12:16:30;;;;;;;6.60;0.70;;;;;;;7.01;66.66;95231.81;5091635;28;20490;-76
2022/11/21 12:19:02;;;;;;;3.50;0.90;;;;;;;6.76;66.30;95228.06;5091650;28;20055;-77
2022/11/21 12:21:29;;;;;;;2.35;0.75;;;;;;;6.76;66.70;95229.97;5091457;28;20044;-76